Time;durP1;ratioP1;P1;durP2;ratioP2;P2;SDS_P1;SDS_P2;PMS_P1;PMS_P2;Temp;Humidity;BMP_temperature;BMP_pressure;BME280_temperature;BME280_humidity;BME280_pressure;Samples;Min_cycle;Max_cycle;Signal;HPM_P1;HPM_P2
2023/04/30 00:00:09;;;;;;;;;;;14.30;88.50;;;;;;4942130;29;19899;-97
2023/04/30 00:02:43;;;;;;;;;;;14.10;88.60;;;;;;4961458;29;19895;-96
2023/04/30 00:05:13;;;;;;;;;;;14.10;89.10;;;;;;4945156;29;19916;-96
2023/04/30 00:07:42;;;;;;;;;;;14.00;89.40;;;;;;4929210;29;19915;-96
2023/04/30 00:10:10;;;;;;;;;;;14.00;89.30;;;;;;4943964;29;19970;-96
2023/04/30 00:12:41;;;;;;;;;;;14.00;89.20;;;;;;4945157;29;19926;-96
2023/04/30 00:15:14;;;;;;;;;;;13.90;89.60;;;;;;4961455;28;19934;-96
2023/04/30 00:17:45;;;;;;;;;;;13.80;90.00;;;;;;4945091;29;19895;-96
2023/04/30 00:20:37;;;;;;;;;;;13.70;90.40;;;;;;4944924;29;19918;-96
2023/04/30 00:23:08;;;;;;;;;;;13.80;90.20;;;;;;4944559;29;19915;-96
2023/04/30 00:25:45;;;;;;;;;;;13.80;90.20;;;;;;4961348;28;19906;-96
2023/04/30 00:28:18;;;;;;;;;;;13.80;90.00;;;;;;4944012;29;19899;-96
2023/04/30 00:30:50;;;;;;;;;;;13.90;90.10;;;;;;4961444;28;19918;-96
2023/04/30 00:33:42;;;;;;;;;;;13.90;90.70;;;;;;4960845;28;19946;-96
2023/04/30 00:36:16;;;;;;;;;;;13.90;90.60;;;;;;4941504;29;19931;-96
2023/04/30 00:38:49;;;;;;;;;;;13.90;90.40;;;;;;4929245;29;19915;-96
2023/04/30 00:41:24;;;;;;;;;;;13.90;90.60;;;;;;4961112;28;19914;-96
2023/04/30 00:44:10;;;;;;;;;;;13.90;90.90;;;;;;4960457;28;19997;-96
2023/04/30 00:46:49;;;;;;;;;;;13.90;91.30;;;;;;4959459;28;19899;-96
2023/04/30 00:49:21;;;;;;;;;;;13.90;91.50;;;;;;4944668;29;19970;-96
2023/04/30 00:51:52;;;;;;;;;;;14.00;91.60;;;;;;4944216;29;19953;-96
2023/04/30 00:54:33;;;;;;;;;;;14.00;91.40;;;;;;4944351;29;19974;-96
2023/04/30 00:57:02;;;;;;;;;;;14.10;91.20;;;;;;4943913;29;19902;-97
2023/04/30 00:59:31;;;;;;;;;;;14.10;90.90;;;;;;4944179;29;19918;-96
2023/04/30 01:02:05;;;;;;;;;;;14.20;90.70;;;;;;4960838;28;19914;-96
2023/04/30 01:04:36;;;;;;;;;;;14.20;90.60;;;;;;4928642;29;19915;-96
2023/04/30 01:07:11;;;;;;;;;;;14.20;90.80;;;;;;4960388;29;19913;-96
2023/04/30 01:09:45;;;;;;;;;;;14.20;90.70;;;;;;4960901;28;19898;-96
2023/04/30 01:12:21;;;;;;;;;;;14.10;90.60;;;;;;4944454;29;19895;-96
2023/04/30 01:15:16;;;;;;;;;;;14.10;90.80;;;;;;4959890;28;19910;-96
2023/04/30 01:18:08;;;;;;;;;;;14.00;91.20;;;;;;4956415;29;19911;-96
2023/04/30 01:20:49;;;;;;;;;;;14.00;91.30;;;;;;4960410;29;19895;-96
2023/04/30 01:23:28;;;;;;;;;;;14.00;91.50;;;;;;4928972;29;19915;-96
2023/04/30 01:26:15;;;;;;;;;;;14.20;91.20;;;;;;4960347;28;19958;-96
2023/04/30 01:28:55;;;;;;;;;;;14.10;90.70;;;;;;4960376;29;19895;-96
2023/04/30 01:31:26;;;;;;;;;;;14.10;90.50;;;;;;4943753;29;19906;-96
2023/04/30 01:34:00;;;;;;;;;;;14.10;90.60;;;;;;4960121;29;19910;-96
2023/04/30 01:36:34;;;;;;;;;;;14.00;90.90;;;;;;4959903;29;19895;-96
2023/04/30 01:39:24;;;;;;;;;;;14.10;90.60;;;;;;4960382;28;19915;-96
2023/04/30 01:42:09;;;;;;;;;;;14.00;90.90;;;;;;4943356;29;19922;-96
2023/04/30 01:44:56;;;;;;;;;;;14.10;91.10;;;;;;4963754;29;19946;-96
2023/04/30 01:47:55;;;;;;;;;;;14.10;91.00;;;;;;4964071;29;19950;-96
2023/04/30 01:50:46;;;;;;;;;;;14.20;91.10;;;;;;4947451;29;19918;-96
2023/04/30 01:53:20;;;;;;;;;;;14.20;90.80;;;;;;4932065;29;19923;-96
2023/04/30 01:55:53;;;;;;;;;;;14.20;90.80;;;;;;4946761;29;19911;-96
2023/04/30 01:58:26;;;;;;;;;;;14.20;90.90;;;;;;4963744;28;19899;-96
2023/04/30 02:01:04;;;;;;;;;;;14.20;91.20;;;;;;4947314;29;19930;-96
2023/04/30 02:03:39;;;;;;;;;;;14.20;91.30;;;;;;4946447;29;19922;-96
2023/04/30 02:06:17;;;;;;;;;;;14.30;91.00;;;;;;4936605;29;19903;-96
2023/04/30 02:08:58;;;;;;;;;;;14.30;90.80;;;;;;4946451;29;19958;-96
2023/04/30 02:11:27;;;;;;;;;;;14.30;91.00;;;;;;4963467;29;19894;-96
2023/04/30 02:14:05;;;;;;;;;;;14.20;91.00;;;;;;4963271;29;19958;-97
2023/04/30 02:16:35;;;;;;;;;;;14.30;91.00;;;;;;4946992;29;19962;-96
2023/04/30 02:19:08;;;;;;;;;;;14.30;90.90;;;;;;4947079;29;19918;-96
2023/04/30 02:21:43;;;;;;;;;;;14.30;90.70;;;;;;4948024;29;19919;-96
2023/04/30 02:24:18;;;;;;;;;;;14.30;90.50;;;;;;4963172;28;19906;-96
2023/04/30 02:26:46;;;;;;;;;;;14.20;90.60;;;;;;4931452;29;19915;-96
2023/04/30 02:29:16;;;;;;;;;;;14.10;90.90;;;;;;4946932;28;19934;-96
2023/04/30 02:32:03;;;;;;;;;;;14.20;91.00;;;;;;4962914;29;19946;-97
2023/04/30 02:34:45;;;;;;;;;;;14.20;90.70;;;;;;4955556;29;19909;-96
2023/04/30 02:37:14;;;;;;;;;;;14.30;90.40;;;;;;4946500;29;19899;-96
2023/04/30 02:39:51;;;;;;;;;;;14.20;90.30;;;;;;4946277;29;20419;-96
2023/04/30 02:42:33;;;;;;;;;;;14.10;90.20;;;;;;4946632;29;19895;-96
2023/04/30 02:45:03;;;;;;;;;;;14.10;90.50;;;;;;4944294;29;19901;-96
2023/04/30 02:47:33;;;;;;;;;;;14.00;90.80;;;;;;4945653;29;19935;-96
2023/04/30 02:50:03;;;;;;;;;;;14.00;91.40;;;;;;4946630;29;19914;-96
2023/04/30 02:52:31;;;;;;;;;;;14.00;91.30;;;;;;4959837;28;19899;-96
2023/04/30 02:55:05;;;;;;;;;;;14.00;91.20;;;;;;4930085;29;19906;-96
2023/04/30 02:57:33;;;;;;;;;;;14.00;91.60;;;;;;4946265;28;19895;-96
2023/04/30 03:00:04;;;;;;;;;;;14.00;91.70;;;;;;4945840;29;19934;-96
2023/04/30 03:02:48;;;;;;;;;;;14.00;91.80;;;;;;4962495;29;19911;-96
2023/04/30 03:05:25;;;;;;;;;;;14.00;92.00;;;;;;4962289;28;19914;-96
2023/04/30 03:07:53;;;;;;;;;;;14.00;91.80;;;;;;4946006;29;19901;-97
2023/04/30 03:10:27;;;;;;;;;;;14.10;91.70;;;;;;4946276;29;19911;-96
2023/04/30 03:12:55;;;;;;;;;;;14.10;91.50;;;;;;4930462;29;19934;-96
2023/04/30 03:15:32;;;;;;;;;;;14.00;91.50;;;;;;4963121;28;20378;-96
2023/04/30 03:18:06;;;;;;;;;;;14.10;91.50;;;;;;4947763;29;19915;-96
2023/04/30 03:20:40;;;;;;;;;;;14.10;91.40;;;;;;4931246;29;19899;-96
2023/04/30 03:23:13;;;;;;;;;;;14.20;91.30;;;;;;4962272;29;19895;-96
2023/04/30 03:25:40;;;;;;;;;;;14.30;91.30;;;;;;4960214;29;19918;-96
2023/04/30 03:28:07;;;;;;;;;;;14.30;91.20;;;;;;4964798;28;19914;-96
2023/04/30 03:30:46;;;;;;;;;;;14.10;91.50;;;;;;4981507;29;19918;-97
2023/04/30 03:33:22;;;;;;;;;;;14.10;91.90;;;;;;4981012;28;19903;-96
2023/04/30 03:35:58;;;;;;;;;;;14.20;91.90;;;;;;4981196;29;19938;-96
2023/04/30 03:38:37;;;;;;;;;;;14.20;91.90;;;;;;4980684;29;19911;-96
2023/04/30 03:41:05;;;;;;;;;;;14.20;91.80;;;;;;4963754;29;19934;-96
2023/04/30 03:43:36;;;;;;;;;;;14.20;91.70;;;;;;4964137;29;19911;-96
2023/04/30 03:46:04;;;;;;;;;;;14.20;91.50;;;;;;4964500;29;19910;-96
2023/04/30 03:48:36;;;;;;;;;;;14.20;91.40;;;;;;4964278;29;19911;-96
2023/04/30 03:51:06;;;;;;;;;;;14.20;91.60;;;;;;4964091;29;19911;-96
2023/04/30 03:53:45;;;;;;;;;;;14.20;91.50;;;;;;4981321;28;19906;-96
2023/04/30 03:56:17;;;;;;;;;;;14.20;91.60;;;;;;4948784;28;19910;-96
2023/04/30 03:58:44;;;;;;;;;;;14.30;91.40;;;;;;4964495;29;19902;-96
2023/04/30 04:01:16;;;;;;;;;;;14.30;91.20;;;;;;4965060;28;19946;-96
2023/04/30 04:03:50;;;;;;;;;;;14.30;91.00;;;;;;4981235;28;20009;-96
2023/04/30 04:06:23;;;;;;;;;;;14.30;91.10;;;;;;4963541;29;19915;-96
2023/04/30 04:11:41;;;;;;;;;;;;;;;;;;;;;
2023/04/30 04:14:28;;;;;;;;;;;14.30;91.10;;;;;;4980551;28;19915;-96
2023/04/30 04:17:28;;;;;;;;;;;14.30;90.90;;;;;;4963576;29;19894;-96
2023/04/30 04:20:01;;;;;;;;;;;14.20;90.80;;;;;;4980708;28;19905;-96
2023/04/30 04:22:35;;;;;;;;;;;14.10;91.30;;;;;;4964167;28;19922;-96
2023/04/30 04:25:13;;;;;;;;;;;14.00;91.80;;;;;;4963824;29;19965;-96
2023/04/30 04:27:42;;;;;;;;;;;14.00;92.20;;;;;;4963269;29;19902;-96
2023/04/30 04:30:19;;;;;;;;;;;14.10;92.60;;;;;;4980186;29;19926;-96
2023/04/30 04:32:55;;;;;;;;;;;14.10;92.80;;;;;;4975912;29;19966;-96
2023/04/30 04:35:23;;;;;;;;;;;14.10;92.50;;;;;;4963266;28;19925;-96
2023/04/30 04:37:55;;;;;;;;;;;14.10;92.60;;;;;;4963267;28;19914;-96
2023/04/30 04:40:40;;;;;;;;;;;14.10;92.90;;;;;;4980081;29;19921;-96
2023/04/30 04:43:12;;;;;;;;;;;14.10;93.00;;;;;;4962252;28;19921;-96
2023/04/30 04:45:47;;;;;;;;;;;14.10;93.20;;;;;;4960322;29;19895;-96
2023/04/30 04:48:18;;;;;;;;;;;14.10;93.30;;;;;;4927531;29;19899;-96
2023/04/30 04:50:51;;;;;;;;;;;14.10;93.40;;;;;;4944096;29;19915;-96
2023/04/30 04:53:21;;;;;;;;;;;14.10;93.50;;;;;;4943799;29;19962;-96
2023/04/30 04:55:53;;;;;;;;;;;14.10;93.50;;;;;;4928415;29;19899;-96
2023/04/30 04:58:27;;;;;;;;;;;14.10;93.30;;;;;;4943976;29;19911;-96
2023/04/30 05:00:58;;;;;;;;;;;14.10;93.20;;;;;;4943881;29;19930;-96
2023/04/30 05:03:30;;;;;;;;;;;14.20;93.30;;;;;;4944111;29;19922;-96
2023/04/30 05:06:15;;;;;;;;;;;14.30;93.20;;;;;;4960514;29;19984;-96
2023/04/30 05:08:47;;;;;;;;;;;14.30;93.00;;;;;;4961072;29;19911;-96
2023/04/30 05:11:21;;;;;;;;;;;14.40;92.50;;;;;;4943281;29;19895;-96
2023/04/30 05:13:57;;;;;;;;;;;14.40;92.20;;;;;;4947926;29;19903;-96
2023/04/30 05:16:49;;;;;;;;;;;14.40;92.00;;;;;;4960184;29;19942;-96
2023/04/30 05:19:21;;;;;;;;;;;14.30;92.00;;;;;;4943759;29;19914;-96
2023/04/30 05:22:00;;;;;;;;;;;14.30;92.00;;;;;;4942954;29;19911;-96
2023/04/30 05:24:35;;;;;;;;;;;14.30;92.20;;;;;;4960156;29;19966;-96
2023/04/30 05:27:10;;;;;;;;;;;14.30;92.30;;;;;;4959653;29;19895;-96
2023/04/30 05:29:55;;;;;;;;;;;14.20;92.30;;;;;;4943463;29;19940;-96
2023/04/30 05:32:28;;;;;;;;;;;14.30;92.40;;;;;;4960048;29;19914;-96
2023/04/30 05:35:00;;;;;;;;;;;14.30;92.50;;;;;;4960306;29;19918;-96
2023/04/30 05:37:37;;;;;;;;;;;14.30;92.40;;;;;;4953440;29;19911;-96
2023/04/30 05:40:36;;;;;;;;;;;14.30;92.40;;;;;;4928018;29;19915;-96
2023/04/30 05:43:12;;;;;;;;;;;14.40;92.40;;;;;;4959686;29;19919;-96
2023/04/30 05:48:26;;;;;;;;;;;14.60;92.10;;;;;;5870974;23;19907;-96
2023/04/30 05:51:00;;;;;;;;;;;14.70;92.00;;;;;;4960430;28;19922;-96
2023/04/30 05:53:39;;;;;;;;;;;14.80;91.80;;;;;;4960865;29;19899;-96
2023/04/30 05:56:12;;;;;;;;;;;14.80;91.40;;;;;;4928186;29;19915;-96
2023/04/30 06:03:59;;;;;;;;;;;14.90;90.90;;;;;;5456377;23;19917;-96
2023/04/30 06:06:32;;;;;;;;;;;14.90;90.70;;;;;;4997872;28;19910;-96
2023/04/30 06:09:09;;;;;;;;;;;15.00;90.50;;;;;;4980463;28;19925;-96
2023/04/30 06:11:44;;;;;;;;;;;15.10;90.40;;;;;;4982428;28;19982;-96
2023/04/30 06:14:25;;;;;;;;;;;15.10;90.70;;;;;;4999242;28;19902;-96
2023/04/30 06:17:18;;;;;;;;;;;15.20;90.30;;;;;;4998757;28;19902;-96
2023/04/30 06:20:11;;;;;;;;;;;15.20;90.00;;;;;;4996054;28;19905;-96
2023/04/30 06:30:35;;;;;;;;;;;15.10;89.50;;;;;;5718510;23;19910;-96
2023/04/30 06:33:13;;;;;;;;;;;15.10;89.60;;;;;;4992034;28;19922;-96
2023/04/30 06:35:42;;;;;;;;;;;15.10;89.50;;;;;;4968884;28;19914;-97
2023/04/30 06:38:18;;;;;;;;;;;15.10;89.50;;;;;;4985760;28;19906;-96
2023/04/30 06:41:00;;;;;;;;;;;15.10;89.00;;;;;;5002596;28;19914;-96
2023/04/30 06:43:44;;;;;;;;;;;15.20;89.10;;;;;;4998016;28;19899;-96
2023/04/30 06:46:24;;;;;;;;;;;15.30;89.10;;;;;;4966005;28;19906;-96
2023/04/30 06:49:13;;;;;;;;;;;15.30;89.00;;;;;;4966409;29;19914;-96
2023/04/30 08:19:20;;;;;;;;;;;16.60;84.90;;;;;;5266115;23;19910;-97
2023/04/30 11:27:12;;;;;;;;;;;18.30;80.70;;;;;;4321784;23;20282;-96
2023/04/30 13:52:47;;;;;;;;;;;21.30;71.20;;;;;;5760878;23;20270;-96
2023/04/30 13:55:13;;;;;;;;;;;21.50;69.30;;;;;;4966546;28;19914;-96
2023/04/30 13:57:38;;;;;;;;;;;21.50;69.40;;;;;;4966474;28;19911;-96
2023/04/30 14:00:05;;;;;;;;;;;21.40;70.00;;;;;;4968729;28;19914;-96
2023/04/30 14:02:31;;;;;;;;;;;21.50;69.80;;;;;;4983554;28;19910;-96
2023/04/30 14:04:58;;;;;;;;;;;21.20;70.00;;;;;;4965036;28;19917;-97
2023/04/30 14:07:24;;;;;;;;;;;21.00;70.30;;;;;;4964275;28;19918;-96
2023/04/30 14:09:49;;;;;;;;;;;20.80;70.40;;;;;;4981853;28;19910;-96
2023/04/30 14:12:15;;;;;;;;;;;20.60;72.00;;;;;;4963700;28;20282;-96
2023/04/30 14:14:41;;;;;;;;;;;20.60;73.00;;;;;;4980903;28;19990;-96
2023/04/30 14:17:06;;;;;;;;;;;20.50;73.00;;;;;;4964149;28;19910;-96
2023/04/30 14:19:32;;;;;;;;;;;20.40;72.90;;;;;;4964419;28;19934;-96
2023/04/30 14:21:58;;;;;;;;;;;20.40;72.90;;;;;;4964164;28;19910;-96
2023/04/30 14:24:24;;;;;;;;;;;20.40;71.40;;;;;;4981937;28;20256;-96
2023/04/30 14:26:50;;;;;;;;;;;20.50;71.90;;;;;;4964218;28;19910;-96
2023/04/30 14:29:17;;;;;;;;;;;20.40;72.90;;;;;;4980940;28;19910;-96
2023/04/30 14:31:43;;;;;;;;;;;20.10;69.00;;;;;;4981315;28;19911;-96
2023/04/30 14:34:09;;;;;;;;;;;20.00;68.70;;;;;;4982367;28;19921;-96
2023/04/30 14:36:35;;;;;;;;;;;20.10;69.30;;;;;;4964909;28;20002;-96
2023/04/30 14:39:03;;;;;;;;;;;20.20;69.20;;;;;;4983015;28;19934;-96
2023/04/30 14:41:32;;;;;;;;;;;20.30;68.40;;;;;;4982538;28;19934;-96
2023/04/30 14:43:58;;;;;;;;;;;20.20;68.90;;;;;;4973808;28;19934;-96
2023/04/30 14:46:24;;;;;;;;;;;20.10;69.60;;;;;;4963140;29;20484;-96
2023/04/30 14:48:49;;;;;;;;;;;20.10;69.60;;;;;;4946084;29;19910;-96
2023/04/30 14:51:15;;;;;;;;;;;20.20;70.70;;;;;;4948217;29;19911;-96
2023/04/30 14:53:41;;;;;;;;;;;20.00;70.90;;;;;;4949314;29;19945;-96
2023/04/30 14:56:07;;;;;;;;;;;20.00;71.10;;;;;;4965591;28;20271;-96
2023/04/30 14:58:32;;;;;;;;;;;19.90;70.60;;;;;;4947817;29;19911;-96
2023/04/30 15:00:58;;;;;;;;;;;19.80;70.10;;;;;;4965674;29;19910;-96
2023/04/30 15:03:24;;;;;;;;;;;19.70;70.50;;;;;;4965526;29;19914;-96
2023/04/30 15:05:50;;;;;;;;;;;19.70;70.10;;;;;;4965707;29;19911;-96
2023/04/30 15:08:16;;;;;;;;;;;19.80;70.10;;;;;;4947843;29;19910;-96
2023/04/30 15:10:42;;;;;;;;;;;19.80;70.50;;;;;;4948340;29;19917;-96
2023/04/30 15:13:08;;;;;;;;;;;19.80;69.50;;;;;;4947193;29;19915;-96
2023/04/30 15:15:35;;;;;;;;;;;20.00;69.30;;;;;;4947699;29;19946;-96
2023/04/30 15:18:02;;;;;;;;;;;20.20;69.20;;;;;;4966189;29;19997;-96
2023/04/30 15:20:28;;;;;;;;;;;20.20;69.30;;;;;;4949361;29;19917;-96
2023/04/30 15:22:54;;;;;;;;;;;20.20;68.50;;;;;;4965939;29;19911;-96
2023/04/30 15:25:22;;;;;;;;;;;20.10;69.50;;;;;;4949367;29;19911;-96
2023/04/30 15:27:49;;;;;;;;;;;20.00;69.20;;;;;;4947558;29;20279;-96
2023/04/30 15:30:15;;;;;;;;;;;19.80;69.90;;;;;;4965561;29;19914;-96
2023/04/30 15:32:40;;;;;;;;;;;19.70;70.10;;;;;;4966553;29;19910;-96
2023/04/30 15:35:06;;;;;;;;;;;19.60;70.60;;;;;;4948179;29;19915;-96
2023/04/30 15:37:33;;;;;;;;;;;19.40;71.50;;;;;;4965654;29;20377;-96
2023/04/30 15:39:59;;;;;;;;;;;19.30;72.50;;;;;;4948253;29;19946;-96
2023/04/30 15:42:25;;;;;;;;;;;19.20;72.50;;;;;;4947613;29;19914;-96
2023/04/30 15:44:51;;;;;;;;;;;19.10;72.60;;;;;;4946570;29;19910;-96
2023/04/30 15:47:17;;;;;;;;;;;18.90;73.20;;;;;;4964441;29;19965;-96
2023/04/30 15:49:43;;;;;;;;;;;18.90;73.60;;;;;;4947357;29;19911;-96
2023/04/30 15:52:09;;;;;;;;;;;18.80;73.50;;;;;;4948418;29;19949;-96
2023/04/30 15:54:35;;;;;;;;;;;18.90;73.70;;;;;;4949196;29;19926;-96
2023/04/30 15:57:02;;;;;;;;;;;18.80;74.40;;;;;;4948074;29;20259;-96
2023/04/30 15:59:28;;;;;;;;;;;18.80;75.70;;;;;;4948388;29;19910;-96
2023/04/30 16:01:54;;;;;;;;;;;18.80;76.90;;;;;;4947747;29;19934;-96
2023/04/30 16:04:20;;;;;;;;;;;18.70;76.30;;;;;;4947183;29;19911;-96
2023/04/30 16:06:46;;;;;;;;;;;18.60;75.90;;;;;;4947225;29;19960;-96
2023/04/30 16:09:11;;;;;;;;;;;18.70;76.40;;;;;;4947781;29;19910;-96
2023/04/30 16:11:38;;;;;;;;;;;18.70;76.40;;;;;;4967068;29;19918;-96
2023/04/30 16:14:05;;;;;;;;;;;18.70;76.70;;;;;;4949152;29;19920;-96
2023/04/30 16:16:31;;;;;;;;;;;18.70;75.60;;;;;;4967065;29;19917;-96
2023/04/30 16:18:57;;;;;;;;;;;18.70;76.10;;;;;;4951350;29;20017;-96
2023/04/30 16:21:22;;;;;;;;;;;18.80;77.20;;;;;;4950725;29;20286;-96
2023/04/30 16:23:49;;;;;;;;;;;18.80;76.30;;;;;;4949384;29;19918;-96
2023/04/30 16:26:15;;;;;;;;;;;18.80;76.70;;;;;;4949075;29;19938;-96
2023/04/30 16:28:40;;;;;;;;;;;18.80;77.20;;;;;;4947858;29;20286;-96
2023/04/30 16:31:06;;;;;;;;;;;18.70;75.20;;;;;;4948271;29;19932;-96
2023/04/30 16:33:32;;;;;;;;;;;18.60;76.00;;;;;;4964291;29;19961;-96
2023/04/30 16:35:58;;;;;;;;;;;18.50;77.00;;;;;;4947226;29;19974;-96
2023/04/30 16:38:24;;;;;;;;;;;18.50;77.60;;;;;;4947263;29;19911;-96
2023/04/30 16:40:49;;;;;;;;;;;18.40;76.80;;;;;;4947093;29;19933;-96
2023/04/30 16:43:15;;;;;;;;;;;18.30;76.50;;;;;;4947568;28;19930;-96
2023/04/30 16:45:41;;;;;;;;;;;18.30;77.00;;;;;;4948851;29;19910;-96
2023/04/30 16:48:09;;;;;;;;;;;18.30;77.30;;;;;;4966713;29;19916;-96
2023/04/30 16:50:35;;;;;;;;;;;18.40;79.10;;;;;;4949639;29;19914;-96
2023/04/30 16:53:01;;;;;;;;;;;18.30;80.00;;;;;;4967200;29;20263;-96
2023/04/30 16:55:26;;;;;;;;;;;18.30;79.40;;;;;;4950186;29;19911;-96
2023/04/30 16:57:52;;;;;;;;;;;18.30;78.90;;;;;;4949606;29;19911;-96
2023/04/30 17:00:18;;;;;;;;;;;18.40;78.40;;;;;;4949861;29;19911;-96
2023/04/30 17:02:47;;;;;;;;;;;18.30;77.80;;;;;;4967066;29;20381;-96
2023/04/30 17:05:14;;;;;;;;;;;18.30;78.00;;;;;;4949926;29;19917;-96
2023/04/30 17:07:46;;;;;;;;;;;18.30;78.80;;;;;;4948833;29;19910;-96
2023/04/30 17:10:12;;;;;;;;;;;18.30;79.70;;;;;;4947812;29;19911;-96
2023/04/30 17:12:41;;;;;;;;;;;18.20;80.00;;;;;;4949144;28;19946;-96
2023/04/30 17:15:07;;;;;;;;;;;18.20;80.30;;;;;;4965167;29;19914;-96
2023/04/30 17:17:32;;;;;;;;;;;18.20;79.00;;;;;;4948712;29;19910;-96
2023/04/30 17:19:59;;;;;;;;;;;18.20;78.70;;;;;;4948774;29;20287;-96
2023/04/30 17:22:24;;;;;;;;;;;18.10;79.40;;;;;;4966618;29;19910;-96
2023/04/30 17:24:53;;;;;;;;;;;18.10;78.80;;;;;;4949108;29;19910;-96
2023/04/30 17:27:19;;;;;;;;;;;18.10;77.80;;;;;;4949028;29;19911;-96
2023/04/30 17:29:45;;;;;;;;;;;18.10;77.50;;;;;;4966139;29;19910;-96
2023/04/30 17:32:11;;;;;;;;;;;18.10;77.00;;;;;;4949397;29;19966;-96
2023/04/30 17:34:37;;;;;;;;;;;18.10;77.30;;;;;;4948887;29;19915;-96
2023/04/30 17:37:03;;;;;;;;;;;18.00;77.70;;;;;;4947911;29;19915;-96
2023/04/30 17:39:31;;;;;;;;;;;18.00;79.10;;;;;;4947226;29;19957;-96
2023/04/30 17:41:59;;;;;;;;;;;17.90;79.60;;;;;;4947098;29;19985;-96
2023/04/30 17:44:25;;;;;;;;;;;17.90;79.70;;;;;;4962183;28;19914;-96
2023/04/30 17:46:51;;;;;;;;;;;17.80;78.40;;;;;;4961873;29;20290;-96
2023/04/30 17:49:16;;;;;;;;;;;17.70;79.20;;;;;;4944467;29;19990;-96
2023/04/30 17:51:42;;;;;;;;;;;17.60;79.30;;;;;;4944030;29;19910;-96
2023/04/30 17:54:07;;;;;;;;;;;17.50;79.30;;;;;;4945045;29;19932;-96
2023/04/30 17:56:33;;;;;;;;;;;17.50;79.00;;;;;;4946861;29;20298;-96
2023/04/30 17:58:59;;;;;;;;;;;17.40;78.50;;;;;;4947960;29;19918;-96
2023/04/30 18:01:25;;;;;;;;;;;17.40;79.70;;;;;;4966273;29;19915;-96
2023/04/30 18:03:51;;;;;;;;;;;17.40;79.50;;;;;;4949797;29;19934;-96
2023/04/30 18:06:17;;;;;;;;;;;17.30;79.10;;;;;;4967019;29;19914;-96
2023/04/30 18:08:43;;;;;;;;;;;17.30;78.60;;;;;;4948110;29;19966;-96
2023/04/30 18:11:09;;;;;;;;;;;17.20;79.00;;;;;;4948576;29;19910;-96
2023/04/30 18:13:35;;;;;;;;;;;17.20;78.30;;;;;;4949418;29;20005;-96
2023/04/30 18:16:01;;;;;;;;;;;17.20;77.70;;;;;;4949602;29;19911;-96
2023/04/30 18:18:27;;;;;;;;;;;17.20;77.70;;;;;;4949124;29;20322;-96
2023/04/30 18:20:54;;;;;;;;;;;17.20;78.00;;;;;;4966115;29;19911;-96
2023/04/30 18:23:20;;;;;;;;;;;17.10;78.10;;;;;;4966681;29;19961;-97
2023/04/30 18:25:46;;;;;;;;;;;17.10;78.00;;;;;;4951379;29;19974;-96
2023/04/30 18:28:13;;;;;;;;;;;17.00;78.00;;;;;;4952772;29;20267;-96
2023/04/30 18:30:38;;;;;;;;;;;17.00;78.10;;;;;;4970020;29;20243;-96
2023/04/30 18:33:04;;;;;;;;;;;16.90;79.00;;;;;;4952997;29;19934;-96
2023/04/30 18:35:31;;;;;;;;;;;16.90;79.20;;;;;;4952811;29;19911;-96
2023/04/30 18:37:57;;;;;;;;;;;16.90;79.50;;;;;;4952117;29;19911;-96
2023/04/30 18:40:23;;;;;;;;;;;16.90;79.70;;;;;;4970246;29;19918;-96
2023/04/30 18:42:48;;;;;;;;;;;16.80;79.50;;;;;;4952250;29;19910;-96
2023/04/30 18:45:15;;;;;;;;;;;16.80;79.80;;;;;;4951211;29;19910;-96
2023/04/30 18:47:40;;;;;;;;;;;16.80;80.40;;;;;;4951154;29;19918;-96
2023/04/30 18:50:09;;;;;;;;;;;16.70;80.90;;;;;;4968281;29;19911;-96
2023/04/30 18:52:38;;;;;;;;;;;16.70;81.10;;;;;;4951399;29;19922;-96
2023/04/30 18:55:06;;;;;;;;;;;16.70;81.20;;;;;;4951299;29;19938;-96
2023/04/30 18:57:32;;;;;;;;;;;16.60;81.40;;;;;;4967796;29;19911;-96
2023/04/30 18:59:58;;;;;;;;;;;16.50;81.80;;;;;;4967642;29;19910;-96
2023/04/30 19:02:23;;;;;;;;;;;16.50;82.50;;;;;;4951857;29;19946;-96
2023/04/30 19:04:50;;;;;;;;;;;16.50;82.70;;;;;;4951667;29;19942;-96
2023/04/30 19:07:15;;;;;;;;;;;16.50;82.30;;;;;;4950560;29;19937;-96
2023/04/30 19:09:43;;;;;;;;;;;16.40;83.30;;;;;;4967272;29;20283;-96
2023/04/30 19:12:10;;;;;;;;;;;16.30;83.70;;;;;;4949456;29;20422;-96
2023/04/30 19:14:36;;;;;;;;;;;16.20;84.10;;;;;;4950069;29;19918;-96
2023/04/30 19:17:02;;;;;;;;;;;16.20;84.20;;;;;;4950283;29;19917;-96
2023/04/30 19:19:28;;;;;;;;;;;16.20;84.70;;;;;;4949930;29;19914;-96
2023/04/30 19:21:54;;;;;;;;;;;16.10;85.00;;;;;;4967062;29;19910;-96
2023/04/30 19:24:20;;;;;;;;;;;16.10;85.20;;;;;;4949606;29;19918;-96
2023/04/30 19:26:46;;;;;;;;;;;16.00;85.00;;;;;;4967568;29;19958;-96
2023/04/30 19:29:11;;;;;;;;;;;16.10;85.50;;;;;;4967096;29;19910;-96
2023/04/30 19:31:37;;;;;;;;;;;16.00;85.50;;;;;;4949296;29;19916;-96
2023/04/30 19:34:03;;;;;;;;;;;15.90;85.50;;;;;;4949187;29;19930;-96
2023/04/30 19:36:28;;;;;;;;;;;15.80;85.60;;;;;;4964909;28;19911;-96
2023/04/30 19:38:54;;;;;;;;;;;15.80;85.80;;;;;;4949347;29;19915;-96
2023/04/30 19:41:20;;;;;;;;;;;15.80;85.80;;;;;;4949891;29;19911;-96
2023/04/30 19:43:46;;;;;;;;;;;15.80;85.70;;;;;;4948665;29;20013;-96
2023/04/30 19:46:11;;;;;;;;;;;15.70;86.00;;;;;;4948667;29;19946;-96
2023/04/30 19:48:37;;;;;;;;;;;15.70;86.30;;;;;;4966501;29;20263;-96
2023/04/30 19:51:03;;;;;;;;;;;15.70;86.30;;;;;;4966723;29;19986;-96
2023/04/30 19:53:29;;;;;;;;;;;15.70;86.40;;;;;;4948282;29;19930;-96
2023/04/30 19:55:55;;;;;;;;;;;15.60;86.40;;;;;;4948228;29;19914;-96
2023/04/30 19:58:21;;;;;;;;;;;15.50;86.00;;;;;;4948301;29;19911;-96
2023/04/30 20:00:46;;;;;;;;;;;15.50;85.90;;;;;;4948108;29;19956;-96
2023/04/30 20:03:13;;;;;;;;;;;15.50;85.70;;;;;;4947279;29;19911;-96
2023/04/30 20:05:39;;;;;;;;;;;15.50;85.30;;;;;;4947754;29;20381;-96
2023/04/30 20:08:06;;;;;;;;;;;15.50;86.00;;;;;;4947929;29;19961;-96
2023/04/30 20:10:35;;;;;;;;;;;15.50;85.70;;;;;;4948967;29;19911;-96
2023/04/30 20:13:00;;;;;;;;;;;15.50;85.40;;;;;;4965899;29;19918;-96
2023/04/30 20:15:26;;;;;;;;;;;15.50;85.20;;;;;;4948220;29;19910;-96
2023/04/30 20:17:52;;;;;;;;;;;15.50;85.70;;;;;;4947417;29;19917;-96
2023/04/30 20:20:19;;;;;;;;;;;15.40;86.20;;;;;;4945666;29;19911;-96
2023/04/30 20:22:48;;;;;;;;;;;15.30;86.50;;;;;;4946908;29;20513;-96
2023/04/30 20:25:14;;;;;;;;;;;15.40;86.40;;;;;;4964054;29;19911;-96
2023/04/30 20:27:40;;;;;;;;;;;15.30;86.70;;;;;;4946159;29;19926;-96
2023/04/30 20:30:05;;;;;;;;;;;15.30;87.30;;;;;;4963355;29;19915;-96
2023/04/30 20:32:31;;;;;;;;;;;15.20;87.10;;;;;;4945826;29;19915;-96
2023/04/30 20:34:57;;;;;;;;;;;15.20;87.10;;;;;;4945972;29;19914;-96
2023/04/30 20:37:23;;;;;;;;;;;15.10;87.10;;;;;;4962810;29;19934;-96
2023/04/30 20:39:49;;;;;;;;;;;15.10;87.20;;;;;;4945410;29;19917;-96
2023/04/30 20:42:15;;;;;;;;;;;15.20;86.30;;;;;;4963303;29;19954;-96
2023/04/30 20:44:41;;;;;;;;;;;15.10;86.20;;;;;;4962799;28;19910;-96
2023/04/30 20:47:09;;;;;;;;;;;15.10;86.10;;;;;;4962960;28;20012;-96
2023/04/30 20:49:36;;;;;;;;;;;15.10;86.00;;;;;;4963373;29;19945;-96
2023/04/30 20:52:01;;;;;;;;;;;15.10;85.70;;;;;;4945439;29;19910;-96
2023/04/30 20:54:27;;;;;;;;;;;15.10;85.50;;;;;;4963100;28;19930;-96
2023/04/30 20:56:53;;;;;;;;;;;15.10;85.30;;;;;;4945245;29;19910;-96
2023/04/30 20:59:18;;;;;;;;;;;15.20;85.10;;;;;;4945459;29;19910;-96
2023/04/30 21:01:44;;;;;;;;;;;15.30;85.40;;;;;;4944976;29;19915;-96
2023/04/30 21:04:10;;;;;;;;;;;15.30;85.60;;;;;;4962606;29;19918;-96
2023/04/30 21:06:37;;;;;;;;;;;15.30;85.50;;;;;;4945547;29;19921;-96
2023/04/30 21:09:03;;;;;;;;;;;15.30;85.60;;;;;;4944548;29;19910;-96
2023/04/30 21:11:29;;;;;;;;;;;15.30;85.70;;;;;;4945483;29;19910;-96
2023/04/30 21:13:54;;;;;;;;;;;15.30;85.50;;;;;;4962174;29;20371;-96
2023/04/30 21:16:20;;;;;;;;;;;15.30;85.50;;;;;;4962373;29;19934;-96
2023/04/30 21:18:47;;;;;;;;;;;15.30;85.50;;;;;;4945030;29;19917;-96
2023/04/30 21:21:13;;;;;;;;;;;15.30;85.50;;;;;;4961644;29;20012;-96
2023/04/30 21:23:38;;;;;;;;;;;15.20;85.80;;;;;;4960826;29;19982;-96
2023/04/30 21:26:04;;;;;;;;;;;15.10;85.40;;;;;;4960549;29;19910;-96
2023/04/30 21:28:31;;;;;;;;;;;15.10;85.20;;;;;;4943018;29;19911;-96
2023/04/30 21:30:57;;;;;;;;;;;15.00;86.00;;;;;;4943903;29;19911;-96
2023/04/30 21:33:22;;;;;;;;;;;15.00;86.90;;;;;;4961332;29;20365;-96
2023/04/30 21:35:48;;;;;;;;;;;14.90;87.20;;;;;;4943509;29;19953;-96
2023/04/30 21:38:14;;;;;;;;;;;14.80;87.70;;;;;;4961770;29;19966;-96
2023/04/30 21:40:41;;;;;;;;;;;14.80;87.80;;;;;;4944386;29;19934;-96
2023/04/30 21:43:08;;;;;;;;;;;14.70;88.50;;;;;;4961502;28;19961;-96
2023/04/30 21:45:34;;;;;;;;;;;14.60;88.70;;;;;;4944320;29;19911;-96
2023/04/30 21:47:59;;;;;;;;;;;14.50;88.80;;;;;;4944819;29;19926;-96
2023/04/30 21:50:26;;;;;;;;;;;14.50;89.10;;;;;;4961937;29;19921;-96